函館市, 日本

2014年9月17日 14時28分 (GMT +0900)
Hakodate | Change Station
CLOSE
Current Station
機場
Location: Hakodate Airport,
海拔: 118 ft
附近的氣象站

海拔 118 ft 41.77 °N, 140.82 °E | Updated 10 minutes ago

Rain Showers
陣雨
57 °F
感覺像 57 °F
7
風 變化 風 來自 西北

今日
高 -- | 低 -- °F
--% 降水機率
昨天
高 -- | 低 -- °F
Precip. -- 英寸
5:18 AM 5:44 PM
第四季, 39% visible
氣壓 29.86 英寸
能見度 6.2 英里
多雲 少數 1500 ft
多雲 3500 ft
多雲 5000 ft
露點 52 °F
濕度 82%
降雨量 0.00 英寸
積雪深度 不適用。
紫外線 2 / 12
花粉 不適用。
空氣質素 不適用。
Flu Activity 不適用。
SPECI RJCH 170518Z 31006KT 280V340 9999 SHRA FEW015 BKN035 BKN050 14/11 Q1011 RMK 1ST015 5CU035 7CU050 A2986

More Conditions Fewer Conditions

氣壓 29.86 英寸
能見度 6.2 英里
多雲 少數 1500 ft
多雲 3500 ft
多雲 5000 ft
露點 52 °F
濕度 82%
降雨量 0.00 英寸
積雪深度 不適用。
紫外線 2 / 12
花粉 不適用。
空氣質素 不適用。
Flu Activity 不適用。
SPECI RJCH 170518Z 31006KT 280V340 9999 SHRA FEW015 BKN035 BKN050 14/11 Q1011 RMK 1ST015 5CU035 7CU050 A2986

More Conditions Fewer Conditions

10-Day Weather Forecast

Almanac

天文

Sep. 17, 2014 昇起 降落
實際時間 05:18 JST 17:44 JST
民用曙暮光 04:50 JST 18:11 JST
航海曙暮光 04:17 JST 18:44 JST
天文學微明 03:43 JST 19:18 JST
月亮 23:34 JST 13:28 JST
可見光的長度 13h 21m
白晝時間
12h 25m
Tomorrow will be 2m 46s shorter.
第四季, 39% of the Moon is Illuminated
今日
第四季
9月 24
10月 1
第一季
10月 8
滿月
10月 15
第四季

昨天之最

國家高溫 國家低溫

Community

WunderPhotos

Upload Photos

1,753,968 照片已上傳!

Nearby

積雪量

Not available.

地震活動

城市 距離 時間和日期
附近沒有最近發生的地震活動。
顯示的最小幅度是2.5。

沿海水溫

地點 溫度
無任何天氣監測站報告

附近的氣象站